sensor_id;sensor_type;location;lat;lon;timestamp;P1;durP1;ratioP1;P2;durP2;ratioP2
77722;SDS011;67811;42.656;23.394;2024-01-07T00:00:02;12.60;;;6.78;;
77722;SDS011;67811;42.656;23.394;2024-01-07T00:04:08;7.82;;;4.93;;
77722;SDS011;67811;42.656;23.394;2024-01-07T00:08:13;13.20;;;5.97;;
77722;SDS011;67811;42.656;23.394;2024-01-07T00:12:19;10.77;;;5.50;;
77722;SDS011;67811;42.656;23.394;2024-01-07T00:16:24;5.87;;;3.30;;
77722;SDS011;67811;42.656;23.394;2024-01-07T00:20:29;8.33;;;3.30;;
77722;SDS011;67811;42.656;23.394;2024-01-07T00:24:34;6.77;;;3.57;;
77722;SDS011;67811;42.656;23.394;2024-01-07T00:28:40;7.63;;;3.10;;
77722;SDS011;67811;42.656;23.394;2024-01-07T00:32:45;6.67;;;3.97;;
77722;SDS011;67811;42.656;23.394;2024-01-07T00:36:50;5.90;;;3.20;;
77722;SDS011;67811;42.656;23.394;2024-01-07T00:40:56;6.60;;;3.10;;
77722;SDS011;67811;42.656;23.394;2024-01-07T00:45:01;7.70;;;3.23;;
77722;SDS011;67811;42.656;23.394;2024-01-07T00:49:06;16.43;;;7.73;;
77722;SDS011;67811;42.656;23.394;2024-01-07T00:53:12;27.33;;;13.73;;
77722;SDS011;67811;42.656;23.394;2024-01-07T00:57:17;23.80;;;13.70;;
77722;SDS011;67811;42.656;23.394;2024-01-07T01:01:22;23.77;;;13.43;;
77722;SDS011;67811;42.656;23.394;2024-01-07T01:05:27;27.43;;;13.53;;
77722;SDS011;67811;42.656;23.394;2024-01-07T01:09:33;27.70;;;13.17;;
77722;SDS011;67811;42.656;23.394;2024-01-07T01:13:38;25.10;;;12.50;;
77722;SDS011;67811;42.656;23.394;2024-01-07T01:17:44;19.30;;;10.43;;
77722;SDS011;67811;42.656;23.394;2024-01-07T01:21:49;19.30;;;10.07;;
77722;SDS011;67811;42.656;23.394;2024-01-07T01:25:54;21.63;;;10.73;;
77722;SDS011;67811;42.656;23.394;2024-01-07T01:30:01;20.65;;;10.00;;
77722;SDS011;67811;42.656;23.394;2024-01-07T01:34:06;14.97;;;7.63;;
77722;SDS011;67811;42.656;23.394;2024-01-07T01:38:12;19.27;;;10.60;;
77722;SDS011;67811;42.656;23.394;2024-01-07T01:42:17;15.93;;;8.70;;
77722;SDS011;67811;42.656;23.394;2024-01-07T01:46:22;13.43;;;7.57;;
77722;SDS011;67811;42.656;23.394;2024-01-07T01:50:28;12.95;;;6.65;;
77722;SDS011;67811;42.656;23.394;2024-01-07T01:54:33;12.47;;;6.87;;
77722;SDS011;67811;42.656;23.394;2024-01-07T01:58:39;11.98;;;5.85;;
77722;SDS011;67811;42.656;23.394;2024-01-07T02:02:45;14.32;;;7.38;;
77722;SDS011;67811;42.656;23.394;2024-01-07T02:06:50;11.60;;;6.78;;
77722;SDS011;67811;42.656;23.394;2024-01-07T02:10:56;7.67;;;3.03;;
77722;SDS011;67811;42.656;23.394;2024-01-07T02:15:01;4.07;;;2.27;;
77722;SDS011;67811;42.656;23.394;2024-01-07T02:19:06;6.13;;;3.57;;
77722;SDS011;67811;42.656;23.394;2024-01-07T02:23:12;11.65;;;5.93;;
77722;SDS011;67811;42.656;23.394;2024-01-07T02:27:17;15.97;;;8.83;;
77722;SDS011;67811;42.656;23.394;2024-01-07T02:31:22;18.83;;;9.53;;
77722;SDS011;67811;42.656;23.394;2024-01-07T02:35:28;19.90;;;8.57;;
77722;SDS011;67811;42.656;23.394;2024-01-07T02:39:33;16.43;;;9.00;;
77722;SDS011;67811;42.656;23.394;2024-01-07T02:43:38;15.33;;;7.97;;
77722;SDS011;67811;42.656;23.394;2024-01-07T02:47:44;11.47;;;6.90;;
77722;SDS011;67811;42.656;23.394;2024-01-07T02:51:49;15.20;;;8.67;;
77722;SDS011;67811;42.656;23.394;2024-01-07T02:55:54;10.83;;;6.00;;
77722;SDS011;67811;42.656;23.394;2024-01-07T02:59:59;11.93;;;4.23;;
77722;SDS011;67811;42.656;23.394;2024-01-07T03:04:05;8.20;;;4.63;;
77722;SDS011;67811;42.656;23.394;2024-01-07T03:08:11;9.25;;;4.97;;
77722;SDS011;67811;42.656;23.394;2024-01-07T03:12:16;6.80;;;3.90;;
77722;SDS011;67811;42.656;23.394;2024-01-07T03:16:22;6.03;;;2.67;;
77722;SDS011;67811;42.656;23.394;2024-01-07T03:20:28;5.38;;;2.25;;
77722;SDS011;67811;42.656;23.394;2024-01-07T03:24:33;7.43;;;2.70;;
77722;SDS011;67811;42.656;23.394;2024-01-07T03:28:39;4.70;;;2.87;;
77722;SDS011;67811;42.656;23.394;2024-01-07T03:32:44;5.88;;;2.78;;
77722;SDS011;67811;42.656;23.394;2024-01-07T03:36:49;6.57;;;3.10;;
77722;SDS011;67811;42.656;23.394;2024-01-07T03:40:55;6.00;;;3.23;;
77722;SDS011;67811;42.656;23.394;2024-01-07T03:45:00;5.57;;;2.73;;
77722;SDS011;67811;42.656;23.394;2024-01-07T03:49:05;6.07;;;3.77;;
77722;SDS011;67811;42.656;23.394;2024-01-07T03:53:11;6.67;;;3.43;;
77722;SDS011;67811;42.656;23.394;2024-01-07T03:57:16;11.80;;;6.55;;
77722;SDS011;67811;42.656;23.394;2024-01-07T04:01:21;17.73;;;9.17;;
77722;SDS011;67811;42.656;23.394;2024-01-07T04:05:27;16.57;;;9.83;;
77722;SDS011;67811;42.656;23.394;2024-01-07T04:09:32;16.20;;;9.43;;
77722;SDS011;67811;42.656;23.394;2024-01-07T04:13:37;17.87;;;9.90;;
77722;SDS011;67811;42.656;23.394;2024-01-07T04:17:42;14.63;;;8.97;;
77722;SDS011;67811;42.656;23.394;2024-01-07T04:21:48;14.70;;;7.93;;
77722;SDS011;67811;42.656;23.394;2024-01-07T04:25:53;16.87;;;9.20;;
77722;SDS011;67811;42.656;23.394;2024-01-07T04:29:58;20.47;;;9.13;;
77722;SDS011;67811;42.656;23.394;2024-01-07T04:34:04;18.93;;;8.97;;
77722;SDS011;67811;42.656;23.394;2024-01-07T04:38:09;14.27;;;7.83;;
77722;SDS011;67811;42.656;23.394;2024-01-07T04:42:14;13.53;;;7.33;;
77722;SDS011;67811;42.656;23.394;2024-01-07T04:46:20;16.55;;;7.93;;
77722;SDS011;67811;42.656;23.394;2024-01-07T04:50:25;13.47;;;6.93;;
77722;SDS011;67811;42.656;23.394;2024-01-07T04:54:31;11.07;;;6.37;;
77722;SDS011;67811;42.656;23.394;2024-01-07T04:58:36;12.67;;;7.50;;
77722;SDS011;67811;42.656;23.394;2024-01-07T05:02:41;14.60;;;7.07;;
77722;SDS011;67811;42.656;23.394;2024-01-07T05:06:46;13.90;;;7.93;;
77722;SDS011;67811;42.656;23.394;2024-01-07T05:10:52;19.13;;;10.60;;
77722;SDS011;67811;42.656;23.394;2024-01-07T05:14:57;15.40;;;7.67;;
77722;SDS011;67811;42.656;23.394;2024-01-07T05:19:02;16.07;;;8.93;;
77722;SDS011;67811;42.656;23.394;2024-01-07T05:23:08;15.50;;;8.27;;
77722;SDS011;67811;42.656;23.394;2024-01-07T05:27:13;15.63;;;7.87;;
77722;SDS011;67811;42.656;23.394;2024-01-07T05:31:18;11.20;;;6.93;;
77722;SDS011;67811;42.656;23.394;2024-01-07T05:35:24;14.02;;;7.35;;
77722;SDS011;67811;42.656;23.394;2024-01-07T05:39:29;11.27;;;6.70;;
77722;SDS011;67811;42.656;23.394;2024-01-07T05:43:35;14.90;;;7.67;;
77722;SDS011;67811;42.656;23.394;2024-01-07T05:47:41;13.73;;;7.78;;
77722;SDS011;67811;42.656;23.394;2024-01-07T05:51:46;11.57;;;6.13;;
77722;SDS011;67811;42.656;23.394;2024-01-07T05:55:51;12.13;;;7.20;;
77722;SDS011;67811;42.656;23.394;2024-01-07T05:59:56;8.87;;;5.20;;
77722;SDS011;67811;42.656;23.394;2024-01-07T06:04:02;13.20;;;6.33;;
77722;SDS011;67811;42.656;23.394;2024-01-07T06:08:07;12.17;;;6.07;;
77722;SDS011;67811;42.656;23.394;2024-01-07T06:12:12;10.83;;;6.87;;
77722;SDS011;67811;42.656;23.394;2024-01-07T06:16:18;15.37;;;8.27;;
77722;SDS011;67811;42.656;23.394;2024-01-07T06:20:23;14.50;;;7.70;;
77722;SDS011;67811;42.656;23.394;2024-01-07T06:24:28;16.23;;;8.90;;
77722;SDS011;67811;42.656;23.394;2024-01-07T06:28:34;11.70;;;7.33;;
77722;SDS011;67811;42.656;23.394;2024-01-07T06:32:39;16.23;;;8.83;;
77722;SDS011;67811;42.656;23.394;2024-01-07T06:36:44;13.93;;;7.60;;
77722;SDS011;67811;42.656;23.394;2024-01-07T06:40:50;8.60;;;5.43;;
77722;SDS011;67811;42.656;23.394;2024-01-07T06:44:55;15.77;;;8.85;;
77722;SDS011;67811;42.656;23.394;2024-01-07T06:49:01;12.23;;;6.67;;
77722;SDS011;67811;42.656;23.394;2024-01-07T06:53:06;14.20;;;7.23;;
77722;SDS011;67811;42.656;23.394;2024-01-07T06:57:11;11.50;;;6.67;;
77722;SDS011;67811;42.656;23.394;2024-01-07T07:01:20;11.30;;;7.40;;
77722;SDS011;67811;42.656;23.394;2024-01-07T07:05:26;15.20;;;7.57;;
77722;SDS011;67811;42.656;23.394;2024-01-07T07:09:31;11.40;;;6.77;;
77722;SDS011;67811;42.656;23.394;2024-01-07T07:13:36;13.10;;;7.37;;
77722;SDS011;67811;42.656;23.394;2024-01-07T07:17:41;8.23;;;5.07;;
77722;SDS011;67811;42.656;23.394;2024-01-07T07:21:47;13.87;;;7.70;;
77722;SDS011;67811;42.656;23.394;2024-01-07T07:25:52;9.63;;;5.00;;
77722;SDS011;67811;42.656;23.394;2024-01-07T07:29:57;13.10;;;6.60;;
77722;SDS011;67811;42.656;23.394;2024-01-07T07:34:03;7.30;;;4.37;;
77722;SDS011;67811;42.656;23.394;2024-01-07T07:38:08;13.80;;;7.93;;
77722;SDS011;67811;42.656;23.394;2024-01-07T07:42:14;11.03;;;6.47;;
77722;SDS011;67811;42.656;23.394;2024-01-07T07:46:19;9.63;;;5.37;;
77722;SDS011;67811;42.656;23.394;2024-01-07T07:50:24;14.07;;;6.57;;
77722;SDS011;67811;42.656;23.394;2024-01-07T07:54:30;9.33;;;4.97;;
77722;SDS011;67811;42.656;23.394;2024-01-07T07:58:35;9.30;;;5.17;;
77722;SDS011;67811;42.656;23.394;2024-01-07T08:02:40;12.37;;;6.23;;
77722;SDS011;67811;42.656;23.394;2024-01-07T08:06:46;12.60;;;7.03;;
77722;SDS011;67811;42.656;23.394;2024-01-07T08:10:51;10.27;;;6.20;;
77722;SDS011;67811;42.656;23.394;2024-01-07T08:14:56;11.00;;;6.40;;
77722;SDS011;67811;42.656;23.394;2024-01-07T08:19:01;14.83;;;6.90;;
77722;SDS011;67811;42.656;23.394;2024-01-07T08:23:07;11.53;;;6.97;;
77722;SDS011;67811;42.656;23.394;2024-01-07T08:27:12;11.33;;;7.53;;
77722;SDS011;67811;42.656;23.394;2024-01-07T08:31:17;14.53;;;7.57;;
77722;SDS011;67811;42.656;23.394;2024-01-07T08:35:22;15.57;;;7.83;;
77722;SDS011;67811;42.656;23.394;2024-01-07T08:39:28;10.70;;;7.13;;
77722;SDS011;67811;42.656;23.394;2024-01-07T08:43:33;15.70;;;8.73;;
77722;SDS011;67811;42.656;23.394;2024-01-07T08:47:38;13.03;;;7.80;;
77722;SDS011;67811;42.656;23.394;2024-01-07T08:51:44;14.00;;;7.87;;
77722;SDS011;67811;42.656;23.394;2024-01-07T08:55:49;14.00;;;8.43;;
77722;SDS011;67811;42.656;23.394;2024-01-07T08:59:54;13.57;;;9.80;;
77722;SDS011;67811;42.656;23.394;2024-01-07T09:03:59;13.63;;;8.23;;
77722;SDS011;67811;42.656;23.394;2024-01-07T09:08:05;14.20;;;7.53;;
77722;SDS011;67811;42.656;23.394;2024-01-07T09:12:11;12.48;;;6.80;;
77722;SDS011;67811;42.656;23.394;2024-01-07T09:16:17;14.83;;;9.70;;
77722;SDS011;67811;42.656;23.394;2024-01-07T09:20:23;15.80;;;9.07;;
77722;SDS011;67811;42.656;23.394;2024-01-07T09:24:28;16.88;;;9.18;;
77722;SDS011;67811;42.656;23.394;2024-01-07T09:28:34;14.30;;;8.07;;
77722;SDS011;67811;42.656;23.394;2024-01-07T09:32:39;13.83;;;7.47;;
77722;SDS011;67811;42.656;23.394;2024-01-07T09:36:44;11.25;;;5.68;;
77722;SDS011;67811;42.656;23.394;2024-01-07T09:40:50;9.83;;;5.40;;
77722;SDS011;67811;42.656;23.394;2024-01-07T09:44:55;7.35;;;3.92;;
77722;SDS011;67811;42.656;23.394;2024-01-07T09:49:01;7.90;;;2.80;;
77722;SDS011;67811;42.656;23.394;2024-01-07T09:53:06;6.40;;;3.17;;
77722;SDS011;67811;42.656;23.394;2024-01-07T09:57:12;5.68;;;3.05;;
77722;SDS011;67811;42.656;23.394;2024-01-07T10:01:17;6.47;;;2.78;;
77722;SDS011;67811;42.656;23.394;2024-01-07T10:05:23;5.30;;;2.70;;
77722;SDS011;67811;42.656;23.394;2024-01-07T10:09:29;5.47;;;2.40;;
77722;SDS011;67811;42.656;23.394;2024-01-07T10:13:37;5.97;;;2.53;;
77722;SDS011;67811;42.656;23.394;2024-01-07T10:17:43;6.90;;;2.23;;
77722;SDS011;67811;42.656;23.394;2024-01-07T10:21:59;5.85;;;2.50;;
77722;SDS011;67811;42.656;23.394;2024-01-07T10:26:05;4.75;;;2.30;;
77722;SDS011;67811;42.656;23.394;2024-01-07T10:30:10;6.53;;;4.63;;
77722;SDS011;67811;42.656;23.394;2024-01-07T10:34:16;7.78;;;4.35;;
77722;SDS011;67811;42.656;23.394;2024-01-07T10:38:23;6.80;;;3.80;;
77722;SDS011;67811;42.656;23.394;2024-01-07T10:42:29;8.63;;;4.20;;
77722;SDS011;67811;42.656;23.394;2024-01-07T10:46:35;6.68;;;3.75;;
77722;SDS011;67811;42.656;23.394;2024-01-07T10:50:41;5.47;;;3.03;;
77722;SDS011;67811;42.656;23.394;2024-01-07T10:54:49;6.65;;;3.15;;
77722;SDS011;67811;42.656;23.394;2024-01-07T10:58:54;5.87;;;2.87;;
77722;SDS011;67811;42.656;23.394;2024-01-07T11:11:45;6.97;;;3.60;;
77722;SDS011;67811;42.656;23.394;2024-01-07T11:15:51;5.97;;;3.55;;
77722;SDS011;67811;42.656;23.394;2024-01-07T11:19:56;6.57;;;3.57;;
77722;SDS011;67811;42.656;23.394;2024-01-07T11:24:02;7.17;;;3.80;;
77722;SDS011;67811;42.656;23.394;2024-01-07T11:28:07;8.03;;;4.10;;
77722;SDS011;67811;42.656;23.394;2024-01-07T11:32:12;6.87;;;3.80;;
77722;SDS011;67811;42.656;23.394;2024-01-07T11:36:18;8.98;;;4.57;;
77722;SDS011;67811;42.656;23.394;2024-01-07T11:40:23;9.77;;;5.17;;
77722;SDS011;67811;42.656;23.394;2024-01-07T11:44:29;7.07;;;3.97;;
77722;SDS011;67811;42.656;23.394;2024-01-07T11:48:34;8.52;;;5.00;;
77722;SDS011;67811;42.656;23.394;2024-01-07T11:52:41;7.80;;;4.93;;
77722;SDS011;67811;42.656;23.394;2024-01-07T11:56:47;8.38;;;4.13;;
77722;SDS011;67811;42.656;23.394;2024-01-07T12:00:52;6.07;;;3.67;;
77722;SDS011;67811;42.656;23.394;2024-01-07T12:04:57;6.23;;;3.30;;
77722;SDS011;67811;42.656;23.394;2024-01-07T12:09:02;8.60;;;3.67;;
77722;SDS011;67811;42.656;23.394;2024-01-07T12:13:08;8.47;;;3.73;;
77722;SDS011;67811;42.656;23.394;2024-01-07T12:17:16;5.65;;;3.03;;
77722;SDS011;67811;42.656;23.394;2024-01-07T12:21:22;4.97;;;2.88;;
77722;SDS011;67811;42.656;23.394;2024-01-07T12:25:27;5.97;;;2.37;;
77722;SDS011;67811;42.656;23.394;2024-01-07T12:29:32;8.03;;;2.70;;
77722;SDS011;67811;42.656;23.394;2024-01-07T12:33:38;6.27;;;3.40;;
77722;SDS011;67811;42.656;23.394;2024-01-07T12:37:43;4.60;;;2.30;;
77722;SDS011;67811;42.656;23.394;2024-01-07T12:41:49;6.25;;;3.17;;
77722;SDS011;67811;42.656;23.394;2024-01-07T12:45:54;6.90;;;3.50;;
77722;SDS011;67811;42.656;23.394;2024-01-07T12:49:59;6.90;;;3.73;;
77722;SDS011;67811;42.656;23.394;2024-01-07T12:54:04;7.90;;;3.93;;
77722;SDS011;67811;42.656;23.394;2024-01-07T12:58:10;7.77;;;4.17;;
77722;SDS011;67811;42.656;23.394;2024-01-07T13:02:15;8.37;;;4.37;;
77722;SDS011;67811;42.656;23.394;2024-01-07T13:06:20;7.10;;;3.33;;
77722;SDS011;67811;42.656;23.394;2024-01-07T13:10:26;6.93;;;4.07;;
77722;SDS011;67811;42.656;23.394;2024-01-07T13:14:31;8.17;;;3.80;;
77722;SDS011;67811;42.656;23.394;2024-01-07T13:18:36;7.03;;;3.37;;
77722;SDS011;67811;42.656;23.394;2024-01-07T13:22:42;8.70;;;4.10;;
77722;SDS011;67811;42.656;23.394;2024-01-07T13:26:47;8.70;;;3.33;;
77722;SDS011;67811;42.656;23.394;2024-01-07T13:30:52;7.20;;;3.70;;
77722;SDS011;67811;42.656;23.394;2024-01-07T13:34:58;6.80;;;2.93;;
77722;SDS011;67811;42.656;23.394;2024-01-07T13:39:03;5.30;;;2.90;;
77722;SDS011;67811;42.656;23.394;2024-01-07T13:43:08;6.17;;;3.60;;
77722;SDS011;67811;42.656;23.394;2024-01-07T13:47:14;6.73;;;2.93;;
77722;SDS011;67811;42.656;23.394;2024-01-07T13:51:19;7.20;;;3.72;;
77722;SDS011;67811;42.656;23.394;2024-01-07T13:55:25;6.45;;;3.15;;
77722;SDS011;67811;42.656;23.394;2024-01-07T13:59:30;8.00;;;3.63;;
77722;SDS011;67811;42.656;23.394;2024-01-07T14:03:35;9.80;;;3.80;;
77722;SDS011;67811;42.656;23.394;2024-01-07T14:07:41;7.23;;;2.97;;
77722;SDS011;67811;42.656;23.394;2024-01-07T14:11:46;6.70;;;3.43;;
77722;SDS011;67811;42.656;23.394;2024-01-07T14:15:51;6.70;;;3.60;;
77722;SDS011;67811;42.656;23.394;2024-01-07T14:19:56;8.47;;;3.63;;
77722;SDS011;67811;42.656;23.394;2024-01-07T14:24:02;6.90;;;3.70;;
77722;SDS011;67811;42.656;23.394;2024-01-07T14:28:07;6.47;;;3.43;;
77722;SDS011;67811;42.656;23.394;2024-01-07T14:32:12;7.33;;;3.83;;
77722;SDS011;67811;42.656;23.394;2024-01-07T14:36:18;5.93;;;3.28;;
77722;SDS011;67811;42.656;23.394;2024-01-07T14:40:23;7.60;;;3.90;;
77722;SDS011;67811;42.656;23.394;2024-01-07T14:44:29;6.73;;;3.93;;
77722;SDS011;67811;42.656;23.394;2024-01-07T14:48:35;8.93;;;3.95;;
77722;SDS011;67811;42.656;23.394;2024-01-07T14:52:40;6.55;;;3.78;;
77722;SDS011;67811;42.656;23.394;2024-01-07T14:56:45;6.27;;;3.70;;
77722;SDS011;67811;42.656;23.394;2024-01-07T15:00:51;6.87;;;3.73;;
77722;SDS011;67811;42.656;23.394;2024-01-07T15:04:56;7.50;;;4.27;;
77722;SDS011;67811;42.656;23.394;2024-01-07T15:09:01;9.57;;;5.27;;
77722;SDS011;67811;42.656;23.394;2024-01-07T15:13:07;11.63;;;6.77;;
77722;SDS011;67811;42.656;23.394;2024-01-07T15:17:12;13.40;;;6.80;;
77722;SDS011;67811;42.656;23.394;2024-01-07T15:21:18;13.10;;;7.97;;
77722;SDS011;67811;42.656;23.394;2024-01-07T15:25:23;13.63;;;7.00;;
77722;SDS011;67811;42.656;23.394;2024-01-07T15:29:28;10.30;;;6.10;;
77722;SDS011;67811;42.656;23.394;2024-01-07T15:33:33;11.27;;;6.07;;
77722;SDS011;67811;42.656;23.394;2024-01-07T15:37:39;12.00;;;6.70;;
77722;SDS011;67811;42.656;23.394;2024-01-07T15:41:44;11.10;;;5.43;;
77722;SDS011;67811;42.656;23.394;2024-01-07T15:45:49;15.70;;;7.70;;
77722;SDS011;67811;42.656;23.394;2024-01-07T15:49:55;11.40;;;6.53;;
77722;SDS011;67811;42.656;23.394;2024-01-07T15:54:00;11.73;;;5.67;;
77722;SDS011;67811;42.656;23.394;2024-01-07T15:58:05;11.80;;;6.37;;
77722;SDS011;67811;42.656;23.394;2024-01-07T16:02:10;15.73;;;8.17;;
77722;SDS011;67811;42.656;23.394;2024-01-07T16:06:16;12.63;;;7.03;;
77722;SDS011;67811;42.656;23.394;2024-01-07T16:10:21;11.90;;;6.90;;
77722;SDS011;67811;42.656;23.394;2024-01-07T16:14:26;11.33;;;6.17;;
77722;SDS011;67811;42.656;23.394;2024-01-07T16:18:32;10.57;;;5.53;;
77722;SDS011;67811;42.656;23.394;2024-01-07T16:22:37;11.27;;;5.77;;
77722;SDS011;67811;42.656;23.394;2024-01-07T16:26:42;9.95;;;5.60;;
77722;SDS011;67811;42.656;23.394;2024-01-07T16:30:48;11.25;;;6.38;;
77722;SDS011;67811;42.656;23.394;2024-01-07T16:34:54;9.10;;;6.03;;
77722;SDS011;67811;42.656;23.394;2024-01-07T16:39:00;10.82;;;6.30;;
77722;SDS011;67811;42.656;23.394;2024-01-07T16:43:05;12.47;;;6.10;;
77722;SDS011;67811;42.656;23.394;2024-01-07T16:47:10;11.23;;;6.03;;
77722;SDS011;67811;42.656;23.394;2024-01-07T16:51:16;11.17;;;6.13;;
77722;SDS011;67811;42.656;23.394;2024-01-07T16:55:21;11.17;;;6.17;;
77722;SDS011;67811;42.656;23.394;2024-01-07T16:59:26;13.00;;;6.97;;
77722;SDS011;67811;42.656;23.394;2024-01-07T17:03:32;14.23;;;7.50;;
77722;SDS011;67811;42.656;23.394;2024-01-07T17:07:37;12.63;;;7.20;;
77722;SDS011;67811;42.656;23.394;2024-01-07T17:11:43;14.20;;;7.63;;
77722;SDS011;67811;42.656;23.394;2024-01-07T17:15:48;12.13;;;7.35;;
77722;SDS011;67811;42.656;23.394;2024-01-07T17:19:54;13.07;;;6.87;;
77722;SDS011;67811;42.656;23.394;2024-01-07T17:23:59;15.57;;;7.00;;
77722;SDS011;67811;42.656;23.394;2024-01-07T17:28:04;14.33;;;6.97;;
77722;SDS011;67811;42.656;23.394;2024-01-07T17:32:10;13.30;;;7.03;;
77722;SDS011;67811;42.656;23.394;2024-01-07T17:36:15;14.03;;;7.97;;
77722;SDS011;67811;42.656;23.394;2024-01-07T17:40:20;13.75;;;7.30;;
77722;SDS011;67811;42.656;23.394;2024-01-07T17:44:26;13.73;;;8.27;;
77722;SDS011;67811;42.656;23.394;2024-01-07T17:48:31;15.30;;;9.40;;
77722;SDS011;67811;42.656;23.394;2024-01-07T17:52:36;16.30;;;8.60;;
77722;SDS011;67811;42.656;23.394;2024-01-07T17:56:41;17.93;;;9.53;;
77722;SDS011;67811;42.656;23.394;2024-01-07T18:00:47;16.70;;;8.63;;
77722;SDS011;67811;42.656;23.394;2024-01-07T18:04:52;17.23;;;8.70;;
77722;SDS011;67811;42.656;23.394;2024-01-07T18:08:58;13.07;;;9.03;;
77722;SDS011;67811;42.656;23.394;2024-01-07T18:13:03;14.93;;;8.13;;
77722;SDS011;67811;42.656;23.394;2024-01-07T18:17:08;15.53;;;9.00;;
77722;SDS011;67811;42.656;23.394;2024-01-07T18:21:14;15.87;;;9.20;;
77722;SDS011;67811;42.656;23.394;2024-01-07T18:25:19;19.48;;;10.23;;
77722;SDS011;67811;42.656;23.394;2024-01-07T18:29:24;19.07;;;10.03;;
77722;SDS011;67811;42.656;23.394;2024-01-07T18:33:30;16.47;;;9.03;;
77722;SDS011;67811;42.656;23.394;2024-01-07T18:37:36;28.37;;;14.83;;
77722;SDS011;67811;42.656;23.394;2024-01-07T18:41:41;28.60;;;16.77;;
77722;SDS011;67811;42.656;23.394;2024-01-07T18:45:46;26.93;;;16.63;;
77722;SDS011;67811;42.656;23.394;2024-01-07T18:49:52;30.67;;;16.60;;
77722;SDS011;67811;42.656;23.394;2024-01-07T18:53:57;30.05;;;16.48;;
77722;SDS011;67811;42.656;23.394;2024-01-07T18:58:03;26.70;;;15.97;;
77722;SDS011;67811;42.656;23.394;2024-01-07T19:02:08;27.60;;;16.47;;
77722;SDS011;67811;42.656;23.394;2024-01-07T19:06:13;31.83;;;15.40;;
77722;SDS011;67811;42.656;23.394;2024-01-07T19:10:19;21.40;;;12.60;;
77722;SDS011;67811;42.656;23.394;2024-01-07T19:14:24;23.10;;;13.37;;
77722;SDS011;67811;42.656;23.394;2024-01-07T19:18:29;19.57;;;12.07;;
77722;SDS011;67811;42.656;23.394;2024-01-07T19:22:34;20.17;;;12.20;;
77722;SDS011;67811;42.656;23.394;2024-01-07T19:26:40;16.03;;;9.67;;
77722;SDS011;67811;42.656;23.394;2024-01-07T19:30:45;14.33;;;8.40;;
77722;SDS011;67811;42.656;23.394;2024-01-07T19:34:50;13.90;;;7.80;;
77722;SDS011;67811;42.656;23.394;2024-01-07T19:38:56;11.73;;;7.20;;
77722;SDS011;67811;42.656;23.394;2024-01-07T19:43:01;13.60;;;7.37;;
77722;SDS011;67811;42.656;23.394;2024-01-07T19:47:06;13.20;;;6.83;;
77722;SDS011;67811;42.656;23.394;2024-01-07T19:51:12;17.73;;;7.43;;
77722;SDS011;67811;42.656;23.394;2024-01-07T19:55:17;12.53;;;6.87;;
77722;SDS011;67811;42.656;23.394;2024-01-07T19:59:22;12.03;;;7.40;;
77722;SDS011;67811;42.656;23.394;2024-01-07T20:03:28;12.67;;;6.70;;
77722;SDS011;67811;42.656;23.394;2024-01-07T20:07:33;15.27;;;8.00;;
77722;SDS011;67811;42.656;23.394;2024-01-07T20:11:39;13.20;;;7.30;;
77722;SDS011;67811;42.656;23.394;2024-01-07T20:15:44;12.27;;;6.85;;
77722;SDS011;67811;42.656;23.394;2024-01-07T20:19:49;34.27;;;14.97;;
77722;SDS011;67811;42.656;23.394;2024-01-07T20:23:55;16.63;;;10.63;;
77722;SDS011;67811;42.656;23.394;2024-01-07T20:28:01;15.52;;;7.80;;
77722;SDS011;67811;42.656;23.394;2024-01-07T20:32:07;11.33;;;7.33;;
77722;SDS011;67811;42.656;23.394;2024-01-07T20:36:12;15.37;;;9.00;;
77722;SDS011;67811;42.656;23.394;2024-01-07T20:40:18;13.60;;;8.57;;
77722;SDS011;67811;42.656;23.394;2024-01-07T20:44:23;16.07;;;9.10;;
77722;SDS011;67811;42.656;23.394;2024-01-07T20:48:28;16.47;;;9.00;;
77722;SDS011;67811;42.656;23.394;2024-01-07T20:52:33;14.10;;;7.70;;
77722;SDS011;67811;42.656;23.394;2024-01-07T20:56:39;14.43;;;9.17;;
77722;SDS011;67811;42.656;23.394;2024-01-07T21:00:44;15.13;;;8.27;;
77722;SDS011;67811;42.656;23.394;2024-01-07T21:04:49;17.60;;;10.47;;
77722;SDS011;67811;42.656;23.394;2024-01-07T21:08:55;19.60;;;11.17;;
77722;SDS011;67811;42.656;23.394;2024-01-07T21:13:00;17.13;;;9.83;;
77722;SDS011;67811;42.656;23.394;2024-01-07T21:17:05;14.27;;;8.63;;
77722;SDS011;67811;42.656;23.394;2024-01-07T21:21:10;15.10;;;8.93;;
77722;SDS011;67811;42.656;23.394;2024-01-07T21:25:16;18.57;;;9.33;;
77722;SDS011;67811;42.656;23.394;2024-01-07T21:29:21;18.63;;;10.17;;
77722;SDS011;67811;42.656;23.394;2024-01-07T21:33:26;16.40;;;8.87;;
77722;SDS011;67811;42.656;23.394;2024-01-07T21:37:32;16.50;;;8.90;;
77722;SDS011;67811;42.656;23.394;2024-01-07T21:41:40;15.77;;;9.60;;
77722;SDS011;67811;42.656;23.394;2024-01-07T21:45:47;17.23;;;9.63;;
77722;SDS011;67811;42.656;23.394;2024-01-07T21:49:55;16.33;;;8.57;;
77722;SDS011;67811;42.656;23.394;2024-01-07T21:54:00;17.77;;;9.13;;
77722;SDS011;67811;42.656;23.394;2024-01-07T21:58:06;14.63;;;8.03;;
77722;SDS011;67811;42.656;23.394;2024-01-07T22:02:11;13.53;;;7.80;;
77722;SDS011;67811;42.656;23.394;2024-01-07T22:06:17;16.58;;;9.40;;
77722;SDS011;67811;42.656;23.394;2024-01-07T22:10:22;15.10;;;9.50;;
77722;SDS011;67811;42.656;23.394;2024-01-07T22:14:27;15.77;;;9.13;;
77722;SDS011;67811;42.656;23.394;2024-01-07T22:18:32;16.57;;;9.23;;
77722;SDS011;67811;42.656;23.394;2024-01-07T22:22:38;15.37;;;9.27;;
77722;SDS011;67811;42.656;23.394;2024-01-07T22:26:43;19.67;;;10.37;;
77722;SDS011;67811;42.656;23.394;2024-01-07T22:30:48;16.80;;;9.17;;
77722;SDS011;67811;42.656;23.394;2024-01-07T22:34:54;14.40;;;9.30;;
77722;SDS011;67811;42.656;23.394;2024-01-07T22:38:59;13.40;;;9.07;;
77722;SDS011;67811;42.656;23.394;2024-01-07T22:43:04;14.27;;;9.07;;
77722;SDS011;67811;42.656;23.394;2024-01-07T22:47:09;14.80;;;8.63;;
77722;SDS011;67811;42.656;23.394;2024-01-07T22:51:15;14.63;;;9.03;;
77722;SDS011;67811;42.656;23.394;2024-01-07T22:55:20;18.63;;;9.10;;
77722;SDS011;67811;42.656;23.394;2024-01-07T22:59:25;21.50;;;11.47;;
77722;SDS011;67811;42.656;23.394;2024-01-07T23:03:31;31.60;;;17.47;;
77722;SDS011;67811;42.656;23.394;2024-01-07T23:07:36;34.00;;;17.67;;
77722;SDS011;67811;42.656;23.394;2024-01-07T23:11:41;31.50;;;18.33;;
77722;SDS011;67811;42.656;23.394;2024-01-07T23:15:46;42.97;;;22.13;;
77722;SDS011;67811;42.656;23.394;2024-01-07T23:19:52;39.43;;;21.47;;
77722;SDS011;67811;42.656;23.394;2024-01-07T23:23:57;44.07;;;21.53;;
77722;SDS011;67811;42.656;23.394;2024-01-07T23:28:02;47.63;;;21.63;;
77722;SDS011;67811;42.656;23.394;2024-01-07T23:32:08;41.42;;;22.42;;
77722;SDS011;67811;42.656;23.394;2024-01-07T23:36:13;40.23;;;20.30;;
77722;SDS011;67811;42.656;23.394;2024-01-07T23:40:18;37.40;;;19.17;;
77722;SDS011;67811;42.656;23.394;2024-01-07T23:44:24;39.47;;;19.33;;
77722;SDS011;67811;42.656;23.394;2024-01-07T23:48:29;33.83;;;18.90;;
77722;SDS011;67811;42.656;23.394;2024-01-07T23:52:34;29.97;;;16.10;;
77722;SDS011;67811;42.656;23.394;2024-01-07T23:56:39;31.73;;;16.30;;
